Terminal Aerodrome Forecast
Issued by NWS Paducah, KY

Home | Current Version | Previous Version | Text Only | Print | Product List | Glossary Off
Versions: 1 2 3 4 5 6 7 8 9 10 11 12 13 14 15 16 17 18 19 20

475
FTUS43 KPAH 100304 AAA
TAFEVV
TAF AMD
KEVV 100304Z 1003/1024 29006KT P6SM OVC040
     FM100900 30010KT P6SM SCT040
     FM101400 29010KT P6SM BKN100=

USA.gov is the U.S. government's official web portal to all federal, state and local government web resources and services.